sensor_id;sensor_type;location;lat;lon;timestamp;pressure;altitude;pressure_sealevel;temperature;humidity
74613;BME280;63119;51.788;8.824;2023-11-21T00:01:57;99458.84;;;9.27;98.00
74613;BME280;63119;51.788;8.824;2023-11-21T00:04:23;99458.47;;;9.21;98.42
74613;BME280;63119;51.788;8.824;2023-11-21T00:06:48;99457.47;;;9.22;98.47
74613;BME280;63119;51.788;8.824;2023-11-21T00:09:14;99458.03;;;9.27;98.45
74613;BME280;63119;51.788;8.824;2023-11-21T00:11:44;99451.25;;;9.23;98.19
74613;BME280;63119;51.788;8.824;2023-11-21T00:14:09;99455.69;;;9.22;98.51
74613;BME280;63119;51.788;8.824;2023-11-21T00:16:35;99453.41;;;9.18;98.93
74613;BME280;63119;51.788;8.824;2023-11-21T00:19:00;99458.13;;;9.25;98.57
74613;BME280;63119;51.788;8.824;2023-11-21T00:21:25;99455.69;;;9.22;98.49
74613;BME280;63119;51.788;8.824;2023-11-21T00:23:51;99460.66;;;9.27;98.18
74613;BME280;63119;51.788;8.824;2023-11-21T00:26:16;99457.28;;;9.25;98.61
74613;BME280;63119;51.788;8.824;2023-11-21T00:28:41;99458.75;;;9.16;99.30
74613;BME280;63119;51.788;8.824;2023-11-21T00:31:07;99458.03;;;9.27;98.59
74613;BME280;63119;51.788;8.824;2023-11-21T00:33:32;99457.19;;;9.26;98.43
74613;BME280;63119;51.788;8.824;2023-11-21T00:35:57;99463.09;;;9.30;98.34
74613;BME280;63119;51.788;8.824;2023-11-21T00:38:22;99466.66;;;9.29;97.57
74613;BME280;63119;51.788;8.824;2023-11-21T00:40:48;99472.25;;;9.24;98.14
74613;BME280;63119;51.788;8.824;2023-11-21T00:43:13;99470.69;;;9.22;97.37
74613;BME280;63119;51.788;8.824;2023-11-21T00:45:38;99474.19;;;9.22;97.53
74613;BME280;63119;51.788;8.824;2023-11-21T00:48:05;99471.00;;;9.30;98.25
74613;BME280;63119;51.788;8.824;2023-11-21T00:50:31;99479.16;;;9.27;98.65
74613;BME280;63119;51.788;8.824;2023-11-21T00:52:56;99490.31;;;9.30;97.83
74613;BME280;63119;51.788;8.824;2023-11-21T00:55:22;99485.44;;;9.37;97.35
74613;BME280;63119;51.788;8.824;2023-11-21T00:57:47;99487.50;;;9.21;98.66
74613;BME280;63119;51.788;8.824;2023-11-21T01:00:13;99484.63;;;9.24;98.71
74613;BME280;63119;51.788;8.824;2023-11-21T01:02:42;99488.44;;;9.20;97.93
74613;BME280;63119;51.788;8.824;2023-11-21T01:05:08;99492.03;;;9.06;99.24
74613;BME280;63119;51.788;8.824;2023-11-21T01:07:33;99495.84;;;9.02;99.25
74613;BME280;63119;51.788;8.824;2023-11-21T01:09:59;99497.00;;;9.11;98.33
74613;BME280;63119;51.788;8.824;2023-11-21T01:12:24;99499.63;;;9.11;98.65
74613;BME280;63119;51.788;8.824;2023-11-21T01:14:50;99499.63;;;9.11;98.45
74613;BME280;63119;51.788;8.824;2023-11-21T01:17:15;99504.69;;;9.14;98.10
74613;BME280;63119;51.788;8.824;2023-11-21T01:19:41;99504.69;;;9.14;97.78
74613;BME280;63119;51.788;8.824;2023-11-21T01:22:07;99502.50;;;9.08;98.61
74613;BME280;63119;51.788;8.824;2023-11-21T01:24:32;99498.78;;;9.10;98.37
74613;BME280;63119;51.788;8.824;2023-11-21T01:26:57;99506.81;;;9.09;98.49
74613;BME280;63119;51.788;8.824;2023-11-21T01:29:22;99503.22;;;9.10;98.28
74613;BME280;63119;51.788;8.824;2023-11-21T01:31:48;99504.06;;;9.10;98.20
74613;BME280;63119;51.788;8.824;2023-11-21T01:34:13;99510.72;;;9.16;97.87
74613;BME280;63119;51.788;8.824;2023-11-21T01:36:39;99510.63;;;9.17;98.21
74613;BME280;63119;51.788;8.824;2023-11-21T01:39:04;99507.66;;;9.09;99.09
74613;BME280;63119;51.788;8.824;2023-11-21T01:41:33;99510.19;;;8.98;100.00
74613;BME280;63119;51.788;8.824;2023-11-21T01:44:00;99505.34;;;9.05;99.18
74613;BME280;63119;51.788;8.824;2023-11-21T01:46:25;99506.72;;;8.98;98.29
74613;BME280;63119;51.788;8.824;2023-11-21T01:48:52;99508.63;;;8.96;99.02
74613;BME280;63119;51.788;8.824;2023-11-21T01:51:18;99507.25;;;8.90;98.64
74613;BME280;63119;51.788;8.824;2023-11-21T01:53:44;99509.34;;;8.85;98.28
74613;BME280;63119;51.788;8.824;2023-11-21T01:56:12;99507.44;;;8.74;97.81
74613;BME280;63119;51.788;8.824;2023-11-21T01:58:38;99507.22;;;8.65;98.43
74613;BME280;63119;51.788;8.824;2023-11-21T02:01:04;99512.06;;;8.58;97.48
74613;BME280;63119;51.788;8.824;2023-11-21T02:03:30;99512.06;;;8.58;97.93
74613;BME280;63119;51.788;8.824;2023-11-21T02:05:56;99509.09;;;8.50;97.16
74613;BME280;63119;51.788;8.824;2023-11-21T02:08:21;99507.16;;;8.40;99.57
74613;BME280;63119;51.788;8.824;2023-11-21T02:10:46;99517.06;;;8.36;98.96
74613;BME280;63119;51.788;8.824;2023-11-21T02:13:12;99517.06;;;8.36;98.59
74613;BME280;63119;51.788;8.824;2023-11-21T02:15:38;99514.53;;;8.35;97.23
74613;BME280;63119;51.788;8.824;2023-11-21T02:18:04;99523.97;;;8.24;97.02
74613;BME280;63119;51.788;8.824;2023-11-21T02:20:31;99518.25;;;8.18;99.54
74613;BME280;63119;51.788;8.824;2023-11-21T02:23:00;99523.72;;;8.15;99.15
74613;BME280;63119;51.788;8.824;2023-11-21T02:25:31;99525.22;;;8.19;98.28
74613;BME280;63119;51.788;8.824;2023-11-21T02:27:58;99520.78;;;8.19;97.27
74613;BME280;63119;51.788;8.824;2023-11-21T02:30:24;99522.50;;;8.20;97.14
74613;BME280;63119;51.788;8.824;2023-11-21T02:32:58;99519.41;;;8.14;97.39
74613;BME280;63119;51.788;8.824;2023-11-21T02:35:24;99520.78;;;8.19;96.64
74613;BME280;63119;51.788;8.824;2023-11-21T02:37:51;99525.53;;;8.27;96.28
74613;BME280;63119;51.788;8.824;2023-11-21T02:40:17;99533.28;;;8.30;96.69
74613;BME280;63119;51.788;8.824;2023-11-21T02:42:46;99542.59;;;8.36;96.27
74613;BME280;63119;51.788;8.824;2023-11-21T02:45:13;99532.06;;;8.36;96.02
74613;BME280;63119;51.788;8.824;2023-11-21T02:47:39;99532.69;;;8.39;96.92
74613;BME280;63119;51.788;8.824;2023-11-21T02:50:05;99541.34;;;8.41;96.47
74613;BME280;63119;51.788;8.824;2023-11-21T02:52:33;99542.59;;;8.48;96.96
74613;BME280;63119;51.788;8.824;2023-11-21T02:54:58;99544.31;;;8.49;96.38
74613;BME280;63119;51.788;8.824;2023-11-21T02:57:24;99550.13;;;8.54;95.87
74613;BME280;63119;51.788;8.824;2023-11-21T02:59:49;99548.31;;;8.55;96.85
74613;BME280;63119;51.788;8.824;2023-11-21T03:02:15;99551.94;;;8.54;97.23
74613;BME280;63119;51.788;8.824;2023-11-21T03:04:40;99554.41;;;8.43;97.07
74613;BME280;63119;51.788;8.824;2023-11-21T03:07:07;99564.00;;;8.17;99.07
74613;BME280;63119;51.788;8.824;2023-11-21T03:09:33;99560.94;;;8.37;98.92
74613;BME280;63119;51.788;8.824;2023-11-21T03:11:58;99563.44;;;8.12;99.78
74613;BME280;63119;51.788;8.824;2023-11-21T03:14:23;99568.38;;;8.04;100.00
74613;BME280;63119;51.788;8.824;2023-11-21T03:16:49;99566.47;;;8.06;100.00
74613;BME280;63119;51.788;8.824;2023-11-21T03:19:14;99571.50;;;7.96;100.00
74613;BME280;63119;51.788;8.824;2023-11-21T03:21:40;99577.13;;;8.04;100.00
74613;BME280;63119;51.788;8.824;2023-11-21T03:24:05;99580.22;;;7.97;100.00
74613;BME280;63119;51.788;8.824;2023-11-21T03:26:32;99576.66;;;7.98;100.00
74613;BME280;63119;51.788;8.824;2023-11-21T03:28:57;99582.47;;;8.03;99.83
74613;BME280;63119;51.788;8.824;2023-11-21T03:31:22;99590.22;;;7.92;99.94
74613;BME280;63119;51.788;8.824;2023-11-21T03:33:48;99592.38;;;7.99;100.00
74613;BME280;63119;51.788;8.824;2023-11-21T03:36:13;99593.97;;;8.02;99.94
74613;BME280;63119;51.788;8.824;2023-11-21T03:38:40;99593.59;;;7.94;100.00
74613;BME280;63119;51.788;8.824;2023-11-21T03:41:07;99590.59;;;7.86;100.00
74613;BME280;63119;51.788;8.824;2023-11-21T03:43:35;99587.44;;;7.66;100.00
74613;BME280;63119;51.788;8.824;2023-11-21T03:46:00;99592.16;;;7.61;100.00
74613;BME280;63119;51.788;8.824;2023-11-21T03:48:26;99592.84;;;7.92;100.00
74613;BME280;63119;51.788;8.824;2023-11-21T03:50:51;99600.56;;;7.95;100.00
74613;BME280;63119;51.788;8.824;2023-11-21T03:53:16;99598.03;;;7.93;100.00
74613;BME280;63119;51.788;8.824;2023-11-21T03:55:41;99602.53;;;8.05;100.00
74613;BME280;63119;51.788;8.824;2023-11-21T03:58:06;99598.81;;;8.22;99.98
74613;BME280;63119;51.788;8.824;2023-11-21T04:00:32;99603.13;;;8.37;99.42
74613;BME280;63119;51.788;8.824;2023-11-21T04:02:57;99602.72;;;8.43;99.29
74613;BME280;63119;51.788;8.824;2023-11-21T04:05:23;99605.34;;;8.43;98.21
74613;BME280;63119;51.788;8.824;2023-11-21T04:07:49;99597.44;;;8.43;98.24
74613;BME280;63119;51.788;8.824;2023-11-21T04:10:15;99605.03;;;8.35;99.22
74613;BME280;63119;51.788;8.824;2023-11-21T04:12:40;99614.53;;;8.38;99.18
74613;BME280;63119;51.788;8.824;2023-11-21T04:15:06;99608.44;;;8.50;98.33
74613;BME280;63119;51.788;8.824;2023-11-21T04:17:33;99617.75;;;8.55;98.65
74613;BME280;63119;51.788;8.824;2023-11-21T04:19:59;99620.50;;;8.54;98.57
74613;BME280;63119;51.788;8.824;2023-11-21T04:22:24;99619.63;;;8.53;98.58
74613;BME280;63119;51.788;8.824;2023-11-21T04:24:49;99633.38;;;8.58;97.66
74613;BME280;63119;51.788;8.824;2023-11-21T04:27:14;99618.34;;;8.46;98.99
74613;BME280;63119;51.788;8.824;2023-11-21T04:29:40;99625.97;;;8.51;98.29
74613;BME280;63119;51.788;8.824;2023-11-21T04:32:06;99627.34;;;8.56;98.21
74613;BME280;63119;51.788;8.824;2023-11-21T04:34:31;99631.66;;;8.57;98.07
74613;BME280;63119;51.788;8.824;2023-11-21T04:36:57;99635.72;;;8.63;98.32
74613;BME280;63119;51.788;8.824;2023-11-21T04:39:22;99639.16;;;8.63;98.01
74613;BME280;63119;51.788;8.824;2023-11-21T04:41:48;99636.00;;;8.58;98.46
74613;BME280;63119;51.788;8.824;2023-11-21T04:44:13;99642.13;;;8.59;97.79
74613;BME280;63119;51.788;8.824;2023-11-21T04:46:39;99639.09;;;8.65;97.72
74613;BME280;63119;51.788;8.824;2023-11-21T04:49:04;99638.03;;;8.67;97.92
74613;BME280;63119;51.788;8.824;2023-11-21T04:51:29;99639.94;;;8.65;97.99
74613;BME280;63119;51.788;8.824;2023-11-21T04:53:57;99637.59;;;8.61;98.46
74613;BME280;63119;51.788;8.824;2023-11-21T04:56:22;99647.59;;;8.56;98.84
74613;BME280;63119;51.788;8.824;2023-11-21T04:58:47;99653.81;;;8.55;98.92
74613;BME280;63119;51.788;8.824;2023-11-21T05:01:12;99650.78;;;8.61;99.44
74613;BME280;63119;51.788;8.824;2023-11-21T05:03:38;99653.13;;;8.65;98.88
74613;BME280;63119;51.788;8.824;2023-11-21T05:06:04;99660.84;;;8.68;98.28
74613;BME280;63119;51.788;8.824;2023-11-21T05:08:30;99659.06;;;8.69;98.39
74613;BME280;63119;51.788;8.824;2023-11-21T05:10:55;99652.28;;;8.65;99.09
74613;BME280;63119;51.788;8.824;2023-11-21T05:13:21;99660.19;;;8.65;98.84
74613;BME280;63119;51.788;8.824;2023-11-21T05:15:47;99661.97;;;8.64;99.03
74613;BME280;63119;51.788;8.824;2023-11-21T05:18:12;99658.09;;;8.70;97.99
74613;BME280;63119;51.788;8.824;2023-11-21T05:20:39;99659.78;;;8.71;98.43
74613;BME280;63119;51.788;8.824;2023-11-21T05:23:05;99657.34;;;8.68;98.60
74613;BME280;63119;51.788;8.824;2023-11-21T05:25:31;99654.91;;;8.65;98.67
74613;BME280;63119;51.788;8.824;2023-11-21T05:27:57;99662.81;;;8.65;98.98
74613;BME280;63119;51.788;8.824;2023-11-21T05:30:26;99668.09;;;8.65;100.00
74613;BME280;63119;51.788;8.824;2023-11-21T05:32:51;99674.88;;;8.69;99.27
74613;BME280;63119;51.788;8.824;2023-11-21T05:35:16;99678.69;;;8.77;99.17
74613;BME280;63119;51.788;8.824;2023-11-21T05:37:43;99674.56;;;8.73;98.85
74613;BME280;63119;51.788;8.824;2023-11-21T05:40:09;99672.97;;;8.71;99.86
74613;BME280;63119;51.788;8.824;2023-11-21T05:42:35;99675.91;;;8.66;99.91
74613;BME280;63119;51.788;8.824;2023-11-21T05:45:01;99675.16;;;8.64;100.00
74613;BME280;63119;51.788;8.824;2023-11-21T05:47:43;99679.59;;;8.64;100.00
74613;BME280;63119;51.788;8.824;2023-11-21T05:50:10;99683.53;;;8.71;100.00
74613;BME280;63119;51.788;8.824;2023-11-21T05:52:48;99687.66;;;8.75;100.00
74613;BME280;63119;51.788;8.824;2023-11-21T05:55:14;99683.41;;;8.72;99.57
74613;BME280;63119;51.788;8.824;2023-11-21T05:57:41;99687.47;;;8.78;99.86
74613;BME280;63119;51.788;8.824;2023-11-21T06:00:14;99683.13;;;8.77;100.00
74613;BME280;63119;51.788;8.824;2023-11-21T06:02:47;99695.06;;;8.83;99.61
74613;BME280;63119;51.788;8.824;2023-11-21T06:05:12;99696.19;;;8.78;100.00
74613;BME280;63119;51.788;8.824;2023-11-21T06:07:38;99693.38;;;8.82;100.00
74613;BME280;63119;51.788;8.824;2023-11-21T06:10:04;99694.00;;;8.85;100.00
74613;BME280;63119;51.788;8.824;2023-11-21T06:12:37;99690.00;;;8.79;100.00
74613;BME280;63119;51.788;8.824;2023-11-21T06:15:05;99690.72;;;8.82;100.00
74613;BME280;63119;51.788;8.824;2023-11-21T06:17:33;99693.16;;;8.85;99.87
74613;BME280;63119;51.788;8.824;2023-11-21T06:20:01;99699.53;;;8.95;99.62
74613;BME280;63119;51.788;8.824;2023-11-21T06:22:29;99697.84;;;8.94;99.26
74613;BME280;63119;51.788;8.824;2023-11-21T06:24:55;99713.66;;;8.94;99.12
74613;BME280;63119;51.788;8.824;2023-11-21T06:27:21;99719.78;;;8.94;99.49
74613;BME280;63119;51.788;8.824;2023-11-21T06:29:46;99724.03;;;8.97;98.53
74613;BME280;63119;51.788;8.824;2023-11-21T06:32:12;99732.91;;;8.96;98.74
74613;BME280;63119;51.788;8.824;2023-11-21T06:34:37;99728.75;;;8.92;99.75
74613;BME280;63119;51.788;8.824;2023-11-21T06:37:03;99732.25;;;8.92;99.26
74613;BME280;63119;51.788;8.824;2023-11-21T06:39:28;99738.66;;;8.88;100.00
74613;BME280;63119;51.788;8.824;2023-11-21T06:41:53;99736.38;;;8.69;100.00
74613;BME280;63119;51.788;8.824;2023-11-21T06:44:19;99744.19;;;8.71;100.00
74613;BME280;63119;51.788;8.824;2023-11-21T06:46:45;99745.78;;;8.73;100.00
74613;BME280;63119;51.788;8.824;2023-11-21T06:49:10;99747.75;;;8.84;100.00
74613;BME280;63119;51.788;8.824;2023-11-21T06:51:36;99752.63;;;8.90;100.00
74613;BME280;63119;51.788;8.824;2023-11-21T06:54:01;99755.69;;;8.97;100.00
74613;BME280;63119;51.788;8.824;2023-11-21T06:56:26;99755.13;;;9.06;100.00
74613;BME280;63119;51.788;8.824;2023-11-21T06:58:52;99772.22;;;9.13;100.00
74613;BME280;63119;51.788;8.824;2023-11-21T07:01:20;99766.53;;;9.19;98.95
74613;BME280;63119;51.788;8.824;2023-11-21T07:03:45;99774.47;;;9.19;98.30
74613;BME280;63119;51.788;8.824;2023-11-21T07:06:11;99770.34;;;9.15;98.28
74613;BME280;63119;51.788;8.824;2023-11-21T07:08:37;99778.47;;;9.12;98.73
74613;BME280;63119;51.788;8.824;2023-11-21T07:11:03;99788.59;;;9.05;98.57
74613;BME280;63119;51.788;8.824;2023-11-21T07:13:29;99788.25;;;9.10;98.88
74613;BME280;63119;51.788;8.824;2023-11-21T07:15:54;99784.56;;;9.12;99.08
74613;BME280;63119;51.788;8.824;2023-11-21T07:18:19;99789.03;;;9.12;98.89
74613;BME280;63119;51.788;8.824;2023-11-21T07:20:44;99795.44;;;9.08;98.05
74613;BME280;63119;51.788;8.824;2023-11-21T07:23:10;99797.16;;;9.09;98.71
74613;BME280;63119;51.788;8.824;2023-11-21T07:25:35;99795.25;;;9.11;98.11
74613;BME280;63119;51.788;8.824;2023-11-21T07:28:01;99802.44;;;9.09;98.44
74613;BME280;63119;51.788;8.824;2023-11-21T07:30:26;99803.16;;;9.11;98.60
74613;BME280;63119;51.788;8.824;2023-11-21T07:32:52;99813.72;;;9.11;97.80
74613;BME280;63119;51.788;8.824;2023-11-21T07:35:17;99811.75;;;9.14;99.35
74613;BME280;63119;51.788;8.824;2023-11-21T07:37:42;99808.97;;;9.16;98.81
74613;BME280;63119;51.788;8.824;2023-11-21T07:40:08;99822.09;;;9.17;98.14
74613;BME280;63119;51.788;8.824;2023-11-21T07:42:34;99816.81;;;9.17;97.90
74613;BME280;63119;51.788;8.824;2023-11-21T07:45:00;99824.56;;;9.06;98.30
74613;BME280;63119;51.788;8.824;2023-11-21T07:47:25;99825.81;;;9.01;98.83
74613;BME280;63119;51.788;8.824;2023-11-21T07:49:52;99821.84;;;8.94;99.64
74613;BME280;63119;51.788;8.824;2023-11-21T07:52:17;99829.31;;;9.01;99.94
74613;BME280;63119;51.788;8.824;2023-11-21T07:54:43;99836.38;;;9.01;99.26
74613;BME280;63119;51.788;8.824;2023-11-21T07:57:09;99835.22;;;9.05;99.03
74613;BME280;63119;51.788;8.824;2023-11-21T07:59:36;99843.16;;;9.05;99.26
74613;BME280;63119;51.788;8.824;2023-11-21T08:02:02;99843.81;;;9.08;99.79
74613;BME280;63119;51.788;8.824;2023-11-21T08:04:27;99846.44;;;9.08;99.06
74613;BME280;63119;51.788;8.824;2023-11-21T08:06:52;99852.13;;;9.02;99.65
74613;BME280;63119;51.788;8.824;2023-11-21T08:09:17;99857.66;;;8.98;100.00
74613;BME280;63119;51.788;8.824;2023-11-21T08:11:43;99861.63;;;9.05;100.00
74613;BME280;63119;51.788;8.824;2023-11-21T08:14:08;99860.50;;;9.09;99.70
74613;BME280;63119;51.788;8.824;2023-11-21T08:16:33;99866.06;;;9.04;99.98
74613;BME280;63119;51.788;8.824;2023-11-21T08:18:58;99868.16;;;8.99;100.00
74613;BME280;63119;51.788;8.824;2023-11-21T08:21:24;99866.06;;;9.04;100.00
74613;BME280;63119;51.788;8.824;2023-11-21T08:23:50;99865.78;;;8.95;100.00
74613;BME280;63119;51.788;8.824;2023-11-21T08:26:19;99864.00;;;8.95;100.00
74613;BME280;63119;51.788;8.824;2023-11-21T08:28:44;99868.22;;;8.98;100.00
74613;BME280;63119;51.788;8.824;2023-11-21T08:31:09;99871.59;;;9.00;100.00
74613;BME280;63119;51.788;8.824;2023-11-21T08:33:35;99872.97;;;8.93;100.00
74613;BME280;63119;51.788;8.824;2023-11-21T08:36:00;99869.09;;;8.98;100.00
74613;BME280;63119;51.788;8.824;2023-11-21T08:38:26;99877.06;;;8.97;100.00
74613;BME280;63119;51.788;8.824;2023-11-21T08:40:53;99867.75;;;8.91;100.00
74613;BME280;63119;51.788;8.824;2023-11-21T08:43:19;99879.38;;;8.89;100.00
74613;BME280;63119;51.788;8.824;2023-11-21T08:45:45;99880.38;;;9.00;100.00
74613;BME280;63119;51.788;8.824;2023-11-21T08:48:10;99871.69;;;9.12;99.88
74613;BME280;63119;51.788;8.824;2023-11-21T08:50:36;99886.13;;;9.07;100.00
74613;BME280;63119;51.788;8.824;2023-11-21T08:53:02;99888.09;;;9.03;100.00
74613;BME280;63119;51.788;8.824;2023-11-21T08:55:27;99883.28;;;9.10;100.00
74613;BME280;63119;51.788;8.824;2023-11-21T08:57:53;99890.66;;;9.05;100.00
74613;BME280;63119;51.788;8.824;2023-11-21T09:00:18;99894.81;;;8.95;100.00
74613;BME280;63119;51.788;8.824;2023-11-21T09:02:44;99902.06;;;9.05;100.00
74613;BME280;63119;51.788;8.824;2023-11-21T09:05:13;99910.34;;;9.13;100.00
74613;BME280;63119;51.788;8.824;2023-11-21T09:07:40;99910.34;;;9.13;100.00
74613;BME280;63119;51.788;8.824;2023-11-21T09:10:07;99911.19;;;9.14;100.00
74613;BME280;63119;51.788;8.824;2023-11-21T09:12:32;99918.19;;;9.01;100.00
74613;BME280;63119;51.788;8.824;2023-11-21T09:14:58;99918.28;;;8.99;100.00
74613;BME280;63119;51.788;8.824;2023-11-21T09:17:23;99916.00;;;9.07;100.00
74613;BME280;63119;51.788;8.824;2023-11-21T09:19:49;99921.47;;;9.04;100.00
74613;BME280;63119;51.788;8.824;2023-11-21T09:22:17;99931.19;;;9.04;100.00
74613;BME280;63119;51.788;8.824;2023-11-21T09:24:43;99930.59;;;9.13;100.00
74613;BME280;63119;51.788;8.824;2023-11-21T09:27:08;99929.47;;;9.03;100.00
74613;BME280;63119;51.788;8.824;2023-11-21T09:29:35;99926.75;;;9.04;100.00
74613;BME280;63119;51.788;8.824;2023-11-21T09:32:00;99928.16;;;9.10;100.00
74613;BME280;63119;51.788;8.824;2023-11-21T09:34:26;99931.75;;;9.09;100.00
74613;BME280;63119;51.788;8.824;2023-11-21T09:36:51;99942.88;;;9.14;100.00
74613;BME280;63119;51.788;8.824;2023-11-21T09:39:17;99942.69;;;9.17;100.00
74613;BME280;63119;51.788;8.824;2023-11-21T09:41:52;99949.66;;;9.18;100.00
74613;BME280;63119;51.788;8.824;2023-11-21T09:44:34;99948.44;;;9.23;100.00
74613;BME280;63119;51.788;8.824;2023-11-21T09:47:00;99948.63;;;9.20;100.00
74613;BME280;63119;51.788;8.824;2023-11-21T09:49:27;99952.84;;;9.23;100.00
74613;BME280;63119;51.788;8.824;2023-11-21T09:51:55;99956.34;;;9.23;100.00
74613;BME280;63119;51.788;8.824;2023-11-21T09:54:22;99953.97;;;9.19;100.00
74613;BME280;63119;51.788;8.824;2023-11-21T09:56:48;99964.81;;;9.28;100.00
74613;BME280;63119;51.788;8.824;2023-11-21T09:59:15;99963.09;;;9.27;100.00
74613;BME280;63119;51.788;8.824;2023-11-21T10:01:42;99962.09;;;9.30;100.00
74613;BME280;63119;51.788;8.824;2023-11-21T10:04:10;99971.13;;;9.26;100.00
74613;BME280;63119;51.788;8.824;2023-11-21T10:06:39;99969.34;;;9.26;100.00
74613;BME280;63119;51.788;8.824;2023-11-21T10:09:10;99970.94;;;9.29;100.00
74613;BME280;63119;51.788;8.824;2023-11-21T10:11:40;99963.97;;;9.28;100.00
74613;BME280;63119;51.788;8.824;2023-11-21T10:14:08;99970.22;;;9.27;100.00
74613;BME280;63119;51.788;8.824;2023-11-21T10:16:35;99967.56;;;9.13;100.00
74613;BME280;63119;51.788;8.824;2023-11-21T10:19:03;99980.56;;;9.30;100.00
74613;BME280;63119;51.788;8.824;2023-11-21T10:21:29;99977.81;;;9.31;100.00
74613;BME280;63119;51.788;8.824;2023-11-21T10:23:55;99984.13;;;9.43;100.00
74613;BME280;63119;51.788;8.824;2023-11-21T10:26:22;99980.63;;;9.43;100.00
74613;BME280;63119;51.788;8.824;2023-11-21T10:28:56;99985.28;;;9.39;100.00
74613;BME280;63119;51.788;8.824;2023-11-21T10:31:22;99985.47;;;9.36;100.00
74613;BME280;63119;51.788;8.824;2023-11-21T10:33:49;99978.84;;;9.43;100.00
74613;BME280;63119;51.788;8.824;2023-11-21T10:36:24;99988.94;;;9.51;100.00
74613;BME280;63119;51.788;8.824;2023-11-21T10:38:50;99996.19;;;9.47;100.00
74613;BME280;63119;51.788;8.824;2023-11-21T10:41:18;99994.88;;;9.54;100.00
74613;BME280;63119;51.788;8.824;2023-11-21T10:43:43;99994.69;;;9.57;100.00
74613;BME280;63119;51.788;8.824;2023-11-21T10:46:09;99998.16;;;9.58;100.00
74613;BME280;63119;51.788;8.824;2023-11-21T10:48:34;99999.97;;;9.57;100.00
74613;BME280;63119;51.788;8.824;2023-11-21T10:51:06;100003.53;;;9.56;100.00
74613;BME280;63119;51.788;8.824;2023-11-21T10:53:32;100000.78;;;9.58;100.00
74613;BME280;63119;51.788;8.824;2023-11-21T10:56:05;100005.59;;;9.65;100.00
74613;BME280;63119;51.788;8.824;2023-11-21T10:58:36;100005.69;;;9.64;100.00
74613;BME280;63119;51.788;8.824;2023-11-21T11:01:05;100001.56;;;9.60;100.00
74613;BME280;63119;51.788;8.824;2023-11-21T11:03:31;100009.75;;;9.55;100.00
74613;BME280;63119;51.788;8.824;2023-11-21T11:05:59;100005.91;;;9.47;100.00
74613;BME280;63119;51.788;8.824;2023-11-21T11:08:25;100001.25;;;9.64;100.00
74613;BME280;63119;51.788;8.824;2023-11-21T11:10:52;100003.41;;;9.72;100.00
74613;BME280;63119;51.788;8.824;2023-11-21T11:13:18;100003.75;;;9.80;100.00
74613;BME280;63119;51.788;8.824;2023-11-21T11:15:47;100005.56;;;9.79;100.00
74613;BME280;63119;51.788;8.824;2023-11-21T11:18:12;100002.16;;;9.77;100.00
74613;BME280;63119;51.788;8.824;2023-11-21T11:20:39;100009.97;;;9.79;100.00
74613;BME280;63119;51.788;8.824;2023-11-21T11:23:22;100010.84;;;9.79;100.00
74613;BME280;63119;51.788;8.824;2023-11-21T11:26:20;100017.09;;;9.78;100.00
74613;BME280;63119;51.788;8.824;2023-11-21T11:29:05;100022.66;;;9.74;100.00
74613;BME280;63119;51.788;8.824;2023-11-21T11:31:49;100028.47;;;9.79;100.00
74613;BME280;63119;51.788;8.824;2023-11-21T11:34:24;100034.31;;;9.57;100.00
74613;BME280;63119;51.788;8.824;2023-11-21T11:37:00;100036.19;;;9.55;100.00
74613;BME280;63119;51.788;8.824;2023-11-21T11:39:36;100042.06;;;9.32;100.00
74613;BME280;63119;51.788;8.824;2023-11-21T11:42:05;100046.94;;;9.38;100.00
74613;BME280;63119;51.788;8.824;2023-11-21T11:47:31;100042.88;;;9.18;100.00
74613;BME280;63119;51.788;8.824;2023-11-21T11:50:07;100045.81;;;9.28;100.00
74613;BME280;63119;51.788;8.824;2023-11-21T11:55:13;100060.34;;;9.21;100.00
74613;BME280;63119;51.788;8.824;2023-11-21T11:57:42;100053.38;;;9.20;100.00
74613;BME280;63119;51.788;8.824;2023-11-21T12:00:12;100064.69;;;9.36;100.00
74613;BME280;63119;51.788;8.824;2023-11-21T12:02:41;100058.84;;;9.45;99.82
74613;BME280;63119;51.788;8.824;2023-11-21T12:05:09;100059.66;;;9.46;99.85
74613;BME280;63119;51.788;8.824;2023-11-21T12:07:47;100061.94;;;9.52;98.84
74613;BME280;63119;51.788;8.824;2023-11-21T12:10:17;100067.69;;;9.44;100.00
74613;BME280;63119;51.788;8.824;2023-11-21T12:12:45;100067.22;;;9.52;98.42
74613;BME280;63119;51.788;8.824;2023-11-21T12:15:11;100064.56;;;9.09;96.41
74613;BME280;63119;51.788;8.824;2023-11-21T12:17:37;100069.56;;;9.28;96.53
74613;BME280;63119;51.788;8.824;2023-11-21T12:20:04;100075.16;;;9.23;94.73
74613;BME280;63119;51.788;8.824;2023-11-21T12:22:32;100082.59;;;9.17;94.16
74613;BME280;63119;51.788;8.824;2023-11-21T12:24:58;100085.13;;;9.04;93.83
74613;BME280;63119;51.788;8.824;2023-11-21T12:27:23;100086.16;;;9.16;94.84
74613;BME280;63119;51.788;8.824;2023-11-21T12:29:48;100094.44;;;9.10;93.02
74613;BME280;63119;51.788;8.824;2023-11-21T12:32:14;100102.53;;;8.93;93.13
74613;BME280;63119;51.788;8.824;2023-11-21T12:34:42;100101.88;;;8.89;93.96
74613;BME280;63119;51.788;8.824;2023-11-21T12:37:08;100110.47;;;8.93;94.81
74613;BME280;63119;51.788;8.824;2023-11-21T12:39:33;100113.16;;;8.91;94.38
74613;BME280;63119;51.788;8.824;2023-11-21T12:41:59;100115.03;;;8.75;96.40
74613;BME280;63119;51.788;8.824;2023-11-21T12:44:25;100117.78;;;8.88;95.55
74613;BME280;63119;51.788;8.824;2023-11-21T12:46:50;100127.63;;;8.54;97.04
74613;BME280;63119;51.788;8.824;2023-11-21T12:49:17;100125.47;;;8.76;96.65
74613;BME280;63119;51.788;8.824;2023-11-21T12:51:45;100131.84;;;8.72;96.61
74613;BME280;63119;51.788;8.824;2023-11-21T12:54:11;100139.56;;;8.61;96.60
74613;BME280;63119;51.788;8.824;2023-11-21T12:56:41;100134.56;;;8.57;97.80
74613;BME280;63119;51.788;8.824;2023-11-21T12:59:06;100136.00;;;8.62;96.73
74613;BME280;63119;51.788;8.824;2023-11-21T13:01:31;100145.56;;;8.63;97.31
74613;BME280;63119;51.788;8.824;2023-11-21T13:03:57;100149.59;;;8.39;97.36
74613;BME280;63119;51.788;8.824;2023-11-21T13:06:27;100148.09;;;8.51;96.65
74613;BME280;63119;51.788;8.824;2023-11-21T13:08:54;100151.56;;;8.51;96.73